Time;durP1;ratioP1;P1;durP2;ratioP2;P2;SDS_P1;SDS_P2;PMS_P1;PMS_P2;Temp;Humidity;BMP_temperature;BMP_pressure;BME280_temperature;BME280_humidity;BME280_pressure;Samples;Min_cycle;Max_cycle;Signal;HPM_P1;HPM_P2
2021/03/11 06:06:35;;;;;;;10.70;5.33;;;;;;;-7.44;67.42;101049.67;1728987;78;946684;-57
2021/03/11 06:09:04;;;;;;;13.38;6.42;;;;;;;-7.32;67.33;101049.58;1683243;83;21190;-58
2021/03/11 06:11:34;;;;;;;9.03;4.83;;;;;;;-7.18;67.07;101051.16;1703027;83;21757;-57
2021/03/11 06:14:03;;;;;;;12.43;5.58;;;;;;;-7.15;66.49;101054.48;1700550;83;21724;-58
2021/03/11 06:16:31;;;;;;;13.53;5.65;;;;;;;-7.12;66.41;101051.94;1674961;83;21875;-57
2021/03/11 06:19:00;;;;;;;10.63;5.00;;;;;;;-7.05;66.37;101056.53;1678791;83;21646;-63
2021/03/11 06:21:30;;;;;;;12.73;5.78;;;;;;;-6.88;66.21;101061.47;1695290;83;21637;-58
2021/03/11 06:23:58;;;;;;;13.43;5.65;;;;;;;-6.80;65.83;101064.77;1692856;81;21774;-58
2021/03/11 06:26:26;;;;;;;15.70;6.25;;;;;;;-6.73;65.48;101066.82;1710597;81;21748;-57
2021/03/11 06:28:56;;;;;;;10.20;5.22;;;;;;;-6.71;65.12;101061.28;1702934;82;21641;-59
2021/03/11 06:31:31;;;;;;;7.78;4.60;;;;;;;-6.58;64.97;101070.06;1725142;81;21400;-57
2021/03/11 06:34:19;;;;;;;12.28;5.50;;;;;;;-6.42;64.44;101060.55;1811828;77;22640;-56
2021/03/11 06:36:53;;;;;;;12.03;4.95;;;;;;;-6.42;64.31;101063.09;1745684;78;21138;-57
2021/03/11 06:39:25;;;;;;;15.60;6.12;;;;;;;-6.28;64.24;101056.56;1783323;78;21285;-56
2021/03/11 06:41:54;;;;;;;12.78;5.80;;;;;;;-6.27;63.89;101067.17;1790579;78;21277;-61
2021/03/11 06:44:35;;;;;;;10.65;5.83;;;;;;;-6.18;63.86;101068.75;1715199;81;21110;-61
2021/03/11 06:47:14;;;;;;;10.80;5.87;;;;;;;-6.11;63.33;101074.17;1719262;81;21756;-59
2021/03/11 06:50:02;;;;;;;14.70;6.45;;;;;;;-6.04;63.08;101074.07;1723135;82;21132;-56
2021/03/11 06:52:30;;;;;;;13.72;6.17;;;;;;;-5.96;62.88;101066.36;1732178;82;21713;-58
2021/03/11 06:55:05;;;;;;;10.50;5.50;;;;;;;-5.77;62.67;101074.13;1723127;81;21601;-58
2021/03/11 06:57:38;;;;;;;9.65;4.97;;;;;;;-5.66;62.13;101073.11;1722255;82;21622;-57
2021/03/11 07:00:18;;;;;;;10.55;5.22;;;;;;;-5.58;61.63;101074.70;1750357;82;21139;-57
2021/03/11 07:02:58;;;;;;;11.22;5.42;;;;;;;-5.63;61.47;101073.08;1727133;83;21150;-57
2021/03/11 07:05:28;;;;;;;9.05;4.72;;;;;;;-5.55;61.32;101072.09;1696698;84;21231;-59
2021/03/11 07:08:19;;;;;;;11.45;5.55;;;;;;;-5.51;61.05;101065.27;1723232;83;21155;-57
2021/03/11 07:10:47;;;;;;;11.30;5.55;;;;;;;-5.54;60.86;101069.11;1709852;83;21563;-58
2021/03/11 07:13:16;;;;;;;15.63;7.22;;;;;;;-5.51;60.88;101064.83;1693476;82;21146;-59
2021/03/11 07:15:46;;;;;;;16.20;7.67;;;;;;;-5.28;61.02;101064.89;1690657;82;21645;-63
2021/03/11 07:18:22;;;;;;;13.22;6.83;;;;;;;-5.08;60.77;101054.39;1662634;85;21155;-59
2021/03/11 07:20:50;;;;;;;10.03;4.60;;;;;;;-4.95;60.49;101046.50;1690180;85;21629;-59
2021/03/11 07:23:20;;;;;;;14.78;5.90;;;;;;;-4.81;59.89;101056.45;1697412;83;21642;-58
2021/03/11 07:25:49;;;;;;;11.08;5.50;;;;;;;-4.77;59.48;101060.64;1703885;83;21558;-59
2021/03/11 07:28:26;;;;;;;12.88;5.85;;;;;;;-4.73;59.26;101067.78;1698213;83;21571;-59
2021/03/11 07:31:01;;;;;;;14.10;6.37;;;;;;;-4.62;59.04;101065.88;1711715;83;21468;-59
2021/03/11 07:33:32;;;;;;;14.13;6.83;;;;;;;-4.52;58.64;101066.56;1705472;83;21638;-59
2021/03/11 07:36:04;;;;;;;12.30;5.65;;;;;;;-4.38;58.49;101073.07;1674029;83;21332;-59
2021/03/11 07:38:33;;;;;;;14.53;6.85;;;;;;;-4.33;58.04;101072.98;1679466;84;21216;-59
2021/03/11 07:41:06;;;;;;;16.37;6.67;;;;;;;-4.39;57.96;101070.55;1680942;84;21347;-59
2021/03/11 07:43:36;;;;;;;15.07;7.13;;;;;;;-4.37;58.24;101070.92;1678009;84;21731;-58
2021/03/11 07:46:06;;;;;;;10.32;5.60;;;;;;;-4.20;57.96;101069.75;1716578;83;21630;-58
2021/03/11 07:48:37;;;;;;;10.82;5.85;;;;;;;-4.17;57.48;101072.23;1693949;83;21175;-58
2021/03/11 07:51:06;;;;;;;12.07;6.60;;;;;;;-4.26;57.42;101070.72;1687318;84;21164;-58
2021/03/11 07:53:36;;;;;;;15.25;7.45;;;;;;;-4.15;57.52;101070.07;1684055;84;21286;-59
2021/03/11 07:56:06;;;;;;;16.40;7.80;;;;;;;-4.04;57.23;101072.38;1694394;83;21210;-60
2021/03/11 07:58:37;;;;;;;16.73;7.30;;;;;;;-3.89;57.20;101076.34;1681654;83;21585;-59
2021/03/11 08:01:06;;;;;;;14.90;7.72;;;;;;;-3.52;56.28;101066.98;1704153;82;21573;-59
2021/03/11 08:03:36;;;;;;;12.53;6.50;;;;;;;-3.52;56.28;101066.98;1683604;84;21745;-60
2021/03/11 08:06:25;;;;;;;11.93;6.47;;;;;;;-3.44;55.84;101070.64;1647417;85;21145;-60
2021/03/11 08:08:54;;;;;;;11.30;5.78;;;;;;;-3.37;55.65;101064.95;1686944;85;21546;-61
2021/03/11 08:11:40;;;;;;;14.98;6.85;;;;;;;-3.32;55.56;101061.41;1679445;84;21584;-58
2021/03/11 08:14:24;;;;;;;13.30;6.40;;;;;;;-3.18;55.14;101062.78;1690048;84;21583;-61
2021/03/11 08:16:53;;;;;;;12.47;6.20;;;;;;;-3.15;54.82;101057.17;1677826;84;21290;-57
2021/03/11 08:19:39;;;;;;;14.13;7.03;;;;;;;-3.12;54.57;101058.80;1678302;84;21587;-60
2021/03/11 08:22:08;;;;;;;17.80;6.53;;;;;;;-3.11;54.75;101054.92;1679315;85;21630;-58
2021/03/11 08:24:46;;;;;;;17.95;7.72;;;;;;;-2.94;54.64;101056.23;1703202;84;21590;-61
2021/03/11 08:27:34;;;;;;;13.00;6.58;;;;;;;-2.83;54.39;101056.36;1703794;83;21274;-57
2021/03/11 08:30:04;;;;;;;11.28;5.62;;;;;;;-2.58;53.45;101055.27;1703086;83;21598;-58
2021/03/11 08:32:49;;;;;;;14.95;6.75;;;;;;;-2.58;53.45;101055.27;1718500;83;21215;-56
2021/03/11 08:35:30;;;;;;;13.75;6.17;;;;;;;-2.54;53.51;101047.92;1718621;83;21126;-56
2021/03/11 08:38:00;;;;;;;17.70;7.35;;;;;;;-2.39;53.09;101042.80;1693584;83;21284;-56
2021/03/11 08:40:42;;;;;;;14.25;7.00;;;;;;;-2.20;52.95;101046.97;1703273;83;21564;-56
2021/03/11 08:43:10;;;;;;;13.65;6.62;;;;;;;-2.18;52.65;101047.75;1688011;84;21573;-56
2021/03/11 08:45:44;;;;;;;17.07;7.12;;;;;;;-2.12;52.57;101047.57;1684957;84;21625;-56
2021/03/11 08:48:17;;;;;;;12.30;6.72;;;;;;;-2.05;52.38;101049.09;1696006;83;21617;-56
2021/03/11 08:50:52;;;;;;;13.80;6.30;;;;;;;-2.06;52.20;101046.56;1689861;83;21156;-55
2021/03/11 08:53:42;;;;;;;13.58;6.37;;;;;;;-2.01;52.05;101048.11;1693751;85;21260;-59
2021/03/11 08:56:22;;;;;;;12.37;6.00;;;;;;;-1.97;51.91;101040.73;1644898;84;21674;-57
2021/03/11 08:59:11;;;;;;;12.15;6.55;;;;;;;-1.74;51.48;101047.74;1677486;85;21618;-56
2021/03/11 09:01:45;;;;;;;12.33;7.03;;;;;;;-1.74;51.48;101047.74;1694182;84;21286;-55
2021/03/11 09:04:34;;;;;;;17.62;6.95;;;;;;;-1.70;50.95;101042.90;1692311;84;21119;-58
2021/03/11 09:07:07;;;;;;;12.33;5.58;;;;;;;-1.59;51.11;101040.45;1701534;84;21599;-59
2021/03/11 09:09:44;;;;;;;12.68;6.65;;;;;;;-1.52;51.21;101044.05;1676464;85;21633;-57
2021/03/11 09:12:18;;;;;;;10.72;6.03;;;;;;;-1.48;50.86;101034.11;1676509;85;21390;-56
2021/03/11 09:14:49;;;;;;;14.07;6.72;;;;;;;-1.32;50.92;101040.02;1684898;83;21151;-56
2021/03/11 09:17:23;;;;;;;13.58;7.10;;;;;;;-1.32;50.49;101031.05;1723321;82;21154;-57
2021/03/11 09:20:13;;;;;;;12.53;6.35;;;;;;;-1.20;50.13;101038.34;1686560;84;21128;-59
2021/03/11 09:22:47;;;;;;;12.63;6.47;;;;;;;-1.16;50.04;101031.78;1678526;85;21583;-57
2021/03/11 09:25:25;;;;;;;11.68;5.83;;;;;;;-1.11;49.93;101033.76;1690318;84;21635;-59
2021/03/11 09:28:01;;;;;;;16.10;6.70;;;;;;;-1.00;49.62;101023.11;1694319;83;21198;-58
2021/03/11 09:30:36;;;;;;;12.90;6.83;;;;;;;-1.00;49.30;101019.27;1702692;83;21211;-60
2021/03/11 09:33:12;;;;;;;14.68;7.25;;;;;;;-0.94;49.67;101018.22;1677636;85;21175;-58
2021/03/11 09:35:43;;;;;;;13.98;6.87;;;;;;;-0.65;49.10;101024.47;1745908;82;21173;-59
2021/03/11 09:38:12;;;;;;;10.10;6.28;;;;;;;-0.65;49.10;101024.47;1736016;80;21756;-57
2021/03/11 09:40:44;;;;;;;13.45;6.83;;;;;;;-0.67;48.69;101023.70;1738780;80;21628;-58
2021/03/11 09:43:28;;;;;;;13.13;6.75;;;;;;;-0.67;48.83;101021.58;1740500;82;21572;-57
2021/03/11 09:46:11;;;;;;;12.82;7.15;;;;;;;-0.53;48.59;101019.35;1740180;82;21729;-55
2021/03/11 09:48:42;;;;;;;11.40;5.97;;;;;;;-0.47;48.52;101020.41;1733840;82;21629;-58
2021/03/11 09:51:13;;;;;;;13.85;6.50;;;;;;;-0.34;48.27;101011.81;1755811;80;21586;-58
2021/03/11 09:53:46;;;;;;;17.45;6.92;;;;;;;-0.37;47.95;101002.95;1759470;80;21673;-58
2021/03/11 09:56:27;;;;;;;14.13;6.78;;;;;;;-0.15;48.13;101005.55;1738081;82;21160;-59
2021/03/11 09:58:59;;;;;;;14.95;7.53;;;;;;;-0.15;48.13;101005.55;1738795;82;21170;-59
2021/03/11 10:01:32;;;;;;;13.58;6.83;;;;;;;-0.06;47.82;101001.36;1737301;80;21156;-57
2021/03/11 10:04:24;;;;;;;15.10;7.92;;;;;;;0.03;47.78;101002.73;1740258;80;21288;-59
2021/03/11 10:06:58;;;;;;;13.93;6.85;;;;;;;0.15;47.19;100997.95;1740705;81;21124;-60
2021/03/11 10:09:39;;;;;;;15.23;6.35;;;;;;;0.30;47.20;100999.53;1737124;82;21176;-61
2021/03/11 10:12:10;;;;;;;11.38;6.00;;;;;;;0.43;46.75;100999.42;1724609;83;21147;-60
2021/03/11 10:14:39;;;;;;;13.22;6.58;;;;;;;0.53;46.56;101000.29;1738767;80;21644;-61
2021/03/11 10:17:09;;;;;;;16.45;6.90;;;;;;;0.53;46.44;100996.43;1696431;83;21711;-63
2021/03/11 10:19:40;;;;;;;11.12;6.65;;;;;;;0.53;46.17;100991.28;1732829;82;21625;-61
2021/03/11 10:22:19;;;;;;;13.72;7.62;;;;;;;0.46;46.14;100987.75;1757746;82;21550;-59
2021/03/11 10:24:51;;;;;;;9.53;6.10;;;;;;;0.57;46.19;100990.73;1730860;82;21332;-60
2021/03/11 10:27:30;;;;;;;12.70;6.58;;;;;;;0.71;45.77;100984.55;1743015;80;21270;-59
2021/03/11 10:30:23;;;;;;;12.88;6.75;;;;;;;0.81;45.30;100985.02;1744943;80;21630;-62
2021/03/11 10:32:53;;;;;;;12.18;6.65;;;;;;;0.92;45.40;100989.70;1741391;80;21296;-61
2021/03/11 10:35:40;;;;;;;12.05;6.15;;;;;;;1.01;45.30;100985.46;1736707;80;21337;-59
2021/03/11 10:38:26;;;;;;;13.75;6.90;;;;;;;1.03;45.20;100983.20;1786861;80;21162;-58
2021/03/11 10:41:14;;;;;;;11.68;6.33;;;;;;;1.19;45.23;100978.69;1718903;83;21207;-58
2021/03/11 10:43:42;;;;;;;16.97;6.70;;;;;;;1.31;44.87;100980.73;1705371;84;21172;-60
2021/03/11 10:46:17;;;;;;;11.80;6.37;;;;;;;1.38;44.43;100985.16;1706450;84;21221;-58
2021/03/11 10:48:50;;;;;;;9.83;6.22;;;;;;;1.44;44.09;100974.58;1684832;85;21337;-58
2021/03/11 10:51:20;;;;;;;13.15;6.60;;;;;;;1.47;44.06;100973.14;1684977;85;21646;-59
2021/03/11 10:53:49;;;;;;;10.08;6.12;;;;;;;1.49;43.96;100975.19;1684115;85;21817;-59
2021/03/11 10:56:17;;;;;;;12.05;6.50;;;;;;;1.51;44.06;100967.80;1696357;84;21420;-59
2021/03/11 10:58:47;;;;;;;9.25;5.42;;;;;;;1.52;43.74;100968.63;1682947;85;21704;-57
2021/03/11 11:01:20;;;;;;;10.98;6.05;;;;;;;1.57;43.57;100964.95;1700394;83;21293;-60
2021/03/11 11:03:49;;;;;;;13.85;6.80;;;;;;;1.37;43.11;100955.13;1741309;82;21563;-59
2021/03/11 11:06:27;;;;;;;11.95;6.12;;;;;;;1.18;43.71;100953.83;1723955;83;21742;-58
2021/03/11 11:08:56;;;;;;;10.95;5.90;;;;;;;1.16;44.14;100956.47;1723200;82;21193;-58
2021/03/11 11:11:25;;;;;;;10.63;5.92;;;;;;;1.25;44.43;100953.97;1724080;82;21775;-58
2021/03/11 11:13:54;;;;;;;14.20;7.08;;;;;;;1.24;44.07;100952.27;1723347;83;21204;-59
2021/03/11 11:16:23;;;;;;;11.20;5.83;;;;;;;1.20;44.21;100948.17;1725780;80;21606;-59
2021/03/11 11:18:52;;;;;;;10.68;5.80;;;;;;;1.24;43.79;100941.97;1737502;82;21849;-60
2021/03/11 11:21:21;;;;;;;11.93;6.75;;;;;;;1.25;43.76;100944.50;1730572;81;21737;-59
2021/03/11 11:23:49;;;;;;;11.85;5.97;;;;;;;1.28;43.35;100939.66;1735900;80;21575;-59
2021/03/11 11:26:18;;;;;;;8.35;5.10;;;;;;;1.25;43.63;100937.23;1737387;82;21768;-59
2021/03/11 11:28:47;;;;;;;12.75;6.92;;;;;;;1.29;43.49;100935.72;1737192;82;21530;-57
2021/03/11 11:31:15;;;;;;;10.72;6.00;;;;;;;1.28;43.24;100931.93;1753703;82;21638;-58
2021/03/11 11:33:44;;;;;;;13.43;6.30;;;;;;;1.28;43.64;100929.35;1752223;81;21643;-57
2021/03/11 11:36:13;;;;;;;12.65;6.05;;;;;;;1.34;43.65;100929.08;1746871;82;21587;-58
2021/03/11 11:38:41;;;;;;;10.40;5.53;;;;;;;1.44;43.47;100931.64;1734581;82;21333;-57
2021/03/11 11:41:11;;;;;;;11.50;6.17;;;;;;;1.61;43.02;100918.83;1715858;82;21294;-57
2021/03/11 11:43:41;;;;;;;9.38;5.78;;;;;;;1.67;43.05;100916.39;1716800;83;21819;-56
2021/03/11 11:46:10;;;;;;;10.05;5.67;;;;;;;1.75;42.87;100913.03;1728428;80;21574;-57
2021/03/11 11:48:38;;;;;;;10.28;5.28;;;;;;;1.74;42.91;100908.78;1726988;83;21211;-57
2021/03/11 11:51:07;;;;;;;10.68;5.53;;;;;;;1.66;42.88;100905.70;1717482;82;21567;-57
2021/03/11 11:53:36;;;;;;;9.50;5.55;;;;;;;1.69;42.91;100900.89;1716771;82;21574;-58
2021/03/11 11:56:05;;;;;;;10.95;5.65;;;;;;;1.71;42.52;100902.92;1716664;82;21829;-58
2021/03/11 11:58:34;;;;;;;10.23;5.70;;;;;;;1.70;42.64;100903.38;1715432;83;21669;-57
2021/03/11 12:01:03;;;;;;;12.98;5.53;;;;;;;1.73;42.39;100898.07;1733111;80;21592;-58
2021/03/11 12:03:32;;;;;;;12.03;6.55;;;;;;;1.69;42.60;100898.31;1734959;80;21574;-59
2021/03/11 12:06:02;;;;;;;15.13;5.30;;;;;;;1.74;42.87;100895.91;1734688;82;21558;-58
2021/03/11 12:08:30;;;;;;;14.90;5.92;;;;;;;1.83;42.93;100889.02;1759756;80;22222;-58
2021/03/11 12:10:59;;;;;;;10.80;6.47;;;;;;;1.87;42.84;100891.83;1741685;81;21500;-59
2021/03/11 12:13:28;;;;;;;8.80;5.15;;;;;;;1.94;43.44;100889.80;1685929;83;21585;-60
2021/03/11 12:15:57;;;;;;;11.55;5.53;;;;;;;2.06;42.71;100893.07;1681378;84;21159;-59
2021/03/11 12:18:26;;;;;;;8.88;5.50;;;;;;;2.12;42.24;100888.91;1679798;84;21180;-60
2021/03/11 12:20:55;;;;;;;9.83;5.40;;;;;;;2.18;42.30;100884.37;1670385;84;21192;-59
2021/03/11 12:23:24;;;;;;;10.80;5.97;;;;;;;2.28;42.38;100877.83;1731249;82;21587;-59
2021/03/11 12:25:52;;;;;;;10.28;6.12;;;;;;;2.30;41.96;100878.57;1735567;82;21773;-58
2021/03/11 12:28:21;;;;;;;9.20;5.15;;;;;;;2.25;41.80;100868.51;1720098;82;21643;-59
2021/03/11 12:30:49;;;;;;;14.18;6.72;;;;;;;2.22;42.46;100876.38;1734603;82;21199;-59
2021/03/11 12:33:19;;;;;;;12.05;6.35;;;;;;;2.35;42.33;100870.16;1744925;82;21655;-55
2021/03/11 12:35:49;;;;;;;10.03;5.78;;;;;;;2.56;41.76;100876.00;1736424;81;21143;-58
2021/03/11 12:38:17;;;;;;;9.73;5.75;;;;;;;2.60;41.56;100876.20;1730230;81;21559;-56
2021/03/11 12:40:46;;;;;;;11.48;5.45;;;;;;;2.59;41.40;100868.09;1748652;81;21622;-58
2021/03/11 12:43:14;;;;;;;10.10;5.60;;;;;;;2.56;41.29;100865.22;1749935;81;21626;-58
2021/03/11 12:45:45;;;;;;;10.32;5.45;;;;;;;2.56;41.17;100867.80;1727553;81;21601;-60
2021/03/11 12:48:13;;;;;;;16.48;6.97;;;;;;;2.69;41.34;100862.84;1730154;83;21566;-60
2021/03/11 12:50:42;;;;;;;12.37;6.28;;;;;;;2.70;41.29;100861.47;1695523;85;21550;-58
2021/03/11 12:53:12;;;;;;;10.40;5.70;;;;;;;2.76;41.23;100860.32;1694916;83;21594;-59
2021/03/11 12:55:41;;;;;;;12.50;6.35;;;;;;;2.76;40.94;100857.74;1690976;85;22218;-61
2021/03/11 12:58:11;;;;;;;9.33;5.55;;;;;;;2.76;41.24;100855.62;1680894;84;21156;-63
2021/03/11 13:00:43;;;;;;;11.40;5.75;;;;;;;2.77;40.58;100858.11;1685387;84;21156;-59
2021/03/11 13:03:11;;;;;;;10.75;5.80;;;;;;;2.80;40.81;100850.23;1695417;84;21593;-61
2021/03/11 13:05:40;;;;;;;9.95;6.00;;;;;;;2.88;40.96;100851.94;1690732;84;21290;-59
2021/03/11 13:08:09;;;;;;;13.15;6.25;;;;;;;2.94;40.61;100850.33;1677792;85;21183;-59
2021/03/11 13:10:38;;;;;;;10.95;6.35;;;;;;;2.87;40.52;100848.98;1685716;84;21951;-59
2021/03/11 13:13:08;;;;;;;10.58;6.03;;;;;;;2.91;40.73;100845.77;1705360;83;21582;-59
2021/03/11 13:15:37;;;;;;;11.12;6.25;;;;;;;2.88;40.28;100842.08;1692027;85;21775;-59
2021/03/11 13:18:07;;;;;;;9.03;5.20;;;;;;;2.85;40.30;100843.52;1686273;85;21568;-59
2021/03/11 13:20:36;;;;;;;11.22;5.30;;;;;;;2.84;40.61;100838.81;1682403;85;21182;-59
2021/03/11 13:23:06;;;;;;;10.80;5.47;;;;;;;2.87;40.77;100839.12;1683074;85;21099;-60
2021/03/11 13:25:37;;;;;;;10.23;6.05;;;;;;;2.90;40.38;100831.20;1680384;84;21632;-58
2021/03/11 13:28:05;;;;;;;10.80;5.62;;;;;;;2.95;40.12;100831.34;1677715;85;21184;-58
2021/03/11 13:30:34;;;;;;;10.40;5.90;;;;;;;2.91;39.75;100824.66;1677423;85;21770;-58
2021/03/11 13:33:05;;;;;;;9.28;5.60;;;;;;;2.90;39.98;100825.58;1678004;84;21631;-59
2021/03/11 13:35:35;;;;;;;9.90;5.78;;;;;;;2.88;40.16;100822.72;1683546;85;21630;-58
2021/03/11 13:38:03;;;;;;;9.45;4.92;;;;;;;2.84;40.09;100815.58;1735370;81;21124;-59
2021/03/11 13:40:32;;;;;;;13.48;6.12;;;;;;;2.89;39.93;100808.89;1716991;83;21555;-58
2021/03/11 13:43:02;;;;;;;10.48;5.58;;;;;;;2.89;39.69;100816.63;1743036;82;21599;-58
2021/03/11 13:45:33;;;;;;;9.30;5.20;;;;;;;2.95;39.73;100822.30;1743757;82;21638;-58
2021/03/11 13:48:02;;;;;;;9.90;5.53;;;;;;;2.95;39.36;100809.86;1746800;82;21164;-58
2021/03/11 13:50:32;;;;;;;10.88;5.78;;;;;;;2.89;39.42;100807.14;1746991;82;21171;-57
2021/03/11 13:53:00;;;;;;;10.80;6.12;;;;;;;2.90;39.27;100808.80;1746863;82;21172;-58
2021/03/11 13:55:29;;;;;;;9.53;5.70;;;;;;;2.89;39.50;100803.73;1746666;82;21571;-58
2021/03/11 13:57:58;;;;;;;11.60;6.25;;;;;;;2.99;39.59;100793.76;1744685;82;21614;-58
2021/03/11 14:00:27;;;;;;;10.58;5.80;;;;;;;3.11;39.59;100790.05;1746959;81;21603;-57
2021/03/11 14:02:56;;;;;;;10.18;6.15;;;;;;;3.27;39.12;100785.33;1741831;81;21224;-59
2021/03/11 14:05:26;;;;;;;12.00;6.45;;;;;;;3.29;38.93;100781.73;1734088;82;21615;-59
2021/03/11 14:07:55;;;;;;;9.98;5.65;;;;;;;3.38;38.90;100775.23;1746696;81;21587;-60
2021/03/11 14:10:25;;;;;;;10.23;5.45;;;;;;;3.37;39.03;100774.88;1734430;81;21572;-58
2021/03/11 14:12:54;;;;;;;9.80;5.60;;;;;;;3.33;38.82;100775.95;1730081;82;21126;-60
2021/03/11 14:15:22;;;;;;;16.30;5.47;;;;;;;3.17;38.93;100770.35;1706767;84;21591;-60
2021/03/11 14:17:51;;;;;;;9.20;5.05;;;;;;;3.18;38.94;100775.05;1718422;82;21708;-60
2021/03/11 14:20:20;;;;;;;10.00;5.22;;;;;;;3.28;38.82;100771.03;1722214;82;21714;-60
2021/03/11 14:22:48;;;;;;;11.65;5.45;;;;;;;3.43;38.56;100762.90;1735642;82;21717;-60
2021/03/11 14:25:17;;;;;;;9.35;5.78;;;;;;;3.49;38.34;100763.39;1731888;81;21658;-59
2021/03/11 14:27:46;;;;;;;10.75;6.17;;;;;;;3.47;38.16;100761.33;1726083;82;21277;-58
2021/03/11 14:30:16;;;;;;;11.18;6.00;;;;;;;3.43;38.01;100759.02;1728020;82;21551;-58
2021/03/11 14:32:46;;;;;;;12.75;6.65;;;;;;;3.32;38.10;100758.79;1744664;82;21171;-58
2021/03/11 14:35:15;;;;;;;13.78;7.30;;;;;;;3.28;38.35;100758.11;1746715;81;21587;-60
2021/03/11 14:37:43;;;;;;;27.22;13.75;;;;;;;3.27;38.58;100760.33;1746601;82;21176;-59
2021/03/11 14:40:13;;;;;;;42.23;21.27;;;;;;;3.14;38.41;100753.72;1726150;81;21559;-60
2021/03/11 14:42:42;;;;;;;27.30;13.83;;;;;;;3.09;38.59;100752.30;1735858;82;21156;-59
2021/03/11 14:45:11;;;;;;;15.08;7.90;;;;;;;3.07;38.81;100748.98;1746076;82;21694;-58
2021/03/11 14:47:40;;;;;;;13.40;7.15;;;;;;;3.02;38.79;100745.81;1746725;81;21163;-59
2021/03/11 14:50:09;;;;;;;9.90;5.83;;;;;;;2.82;38.72;100743.86;1728667;81;21603;-59
2021/03/11 14:52:38;;;;;;;10.03;5.72;;;;;;;2.70;38.86;100745.80;1733374;82;21219;-58
2021/03/11 14:55:08;;;;;;;12.43;6.75;;;;;;;2.67;39.17;100737.78;1738303;81;21734;-57
2021/03/11 14:57:38;;;;;;;13.98;7.50;;;;;;;2.49;39.42;100741.80;1746937;81;21159;-59
2021/03/11 15:00:09;;;;;;;10.95;6.35;;;;;;;2.36;39.99;100734.70;1718405;82;21564;-59
2021/03/11 15:02:39;;;;;;;15.00;7.80;;;;;;;2.42;40.19;100737.39;1730761;82;21189;-59
2021/03/11 15:05:09;;;;;;;14.43;8.18;;;;;;;2.58;40.06;100725.36;1735100;82;21540;-59
2021/03/11 15:07:41;;;;;;;13.93;7.60;;;;;;;2.68;39.86;100729.58;1744728;82;21140;-59
